sensor_id;sensor_type;location;lat;lon;timestamp;temperature;humidity
12460;DHT22;6295;49.452;8.466;2024-02-15T12:14:22;13.60;99.90
12460;DHT22;6295;49.452;8.466;2024-02-15T12:18:42;13.60;99.90
12460;DHT22;6295;49.452;8.466;2024-02-15T12:22:48;13.70;99.90
12460;DHT22;6295;49.452;8.466;2024-02-15T12:26:51;13.70;99.90
12460;DHT22;6295;49.452;8.466;2024-02-15T12:30:56;13.80;99.90
12460;DHT22;6295;49.452;8.466;2024-02-15T12:35:10;13.80;99.90
12460;DHT22;6295;49.452;8.466;2024-02-15T12:39:24;13.90;99.90
12460;DHT22;6295;49.452;8.466;2024-02-15T12:43:26;14.00;99.90
12460;DHT22;6295;49.452;8.466;2024-02-15T12:47:30;14.00;99.90
12460;DHT22;6295;49.452;8.466;2024-02-15T12:51:33;14.10;99.90
12460;DHT22;6295;49.452;8.466;2024-02-15T12:55:40;14.10;99.90
12460;DHT22;6295;49.452;8.466;2024-02-15T12:59:47;14.20;99.90
12460;DHT22;6295;49.452;8.466;2024-02-15T13:03:50;14.20;99.90
12460;DHT22;6295;49.452;8.466;2024-02-15T13:07:54;14.20;99.90
12460;DHT22;6295;49.452;8.466;2024-02-15T13:11:56;14.20;99.90
12460;DHT22;6295;49.452;8.466;2024-02-15T13:20:04;14.20;99.90
12460;DHT22;6295;49.452;8.466;2024-02-15T13:24:14;14.20;99.90
12460;DHT22;6295;49.452;8.466;2024-02-15T13:28:19;14.20;99.90
12460;DHT22;6295;49.452;8.466;2024-02-15T13:32:21;14.20;99.90
12460;DHT22;6295;49.452;8.466;2024-02-15T13:36:25;14.20;99.90
12460;DHT22;6295;49.452;8.466;2024-02-15T13:40:29;14.30;99.90
12460;DHT22;6295;49.452;8.466;2024-02-15T13:44:32;14.30;99.90
12460;DHT22;6295;49.452;8.466;2024-02-15T13:48:34;14.30;99.90
12460;DHT22;6295;49.452;8.466;2024-02-15T13:52:38;14.30;99.90
12460;DHT22;6295;49.452;8.466;2024-02-15T13:56:42;14.30;99.90
12460;DHT22;6295;49.452;8.466;2024-02-15T14:00:44;14.30;99.90
12460;DHT22;6295;49.452;8.466;2024-02-15T14:04:51;14.30;99.90
12460;DHT22;6295;49.452;8.466;2024-02-15T14:08:58;14.30;99.90
12460;DHT22;6295;49.452;8.466;2024-02-15T14:13:02;14.40;99.90
12460;DHT22;6295;49.452;8.466;2024-02-15T14:17:06;14.40;99.90
12460;DHT22;6295;49.452;8.466;2024-02-15T14:21:08;14.40;99.90
12460;DHT22;6295;49.452;8.466;2024-02-15T14:25:12;14.40;99.90
12460;DHT22;6295;49.452;8.466;2024-02-15T14:29:15;14.40;99.90
12460;DHT22;6295;49.452;8.466;2024-02-15T14:33:21;14.50;99.90
12460;DHT22;6295;49.452;8.466;2024-02-15T14:37:23;14.50;99.90
12460;DHT22;6295;49.452;8.466;2024-02-15T14:41:27;14.40;99.90
12460;DHT22;6295;49.452;8.466;2024-02-15T14:45:29;14.50;99.90
12460;DHT22;6295;49.452;8.466;2024-02-15T14:49:32;14.50;99.90
12460;DHT22;6295;49.452;8.466;2024-02-15T14:57:39;14.50;99.90
12460;DHT22;6295;49.452;8.466;2024-02-15T15:01:41;14.50;99.90
12460;DHT22;6295;49.452;8.466;2024-02-15T15:05:47;14.50;99.90
12460;DHT22;6295;49.452;8.466;2024-02-15T15:10:07;14.40;99.90
12460;DHT22;6295;49.452;8.466;2024-02-15T15:14:28;14.40;99.90
12460;DHT22;6295;49.452;8.466;2024-02-15T15:22:33;14.40;99.90
12460;DHT22;6295;49.452;8.466;2024-02-15T15:26:35;14.40;99.90
12460;DHT22;6295;49.452;8.466;2024-02-15T15:30:39;14.30;99.90
12460;DHT22;6295;49.452;8.466;2024-02-15T15:34:41;14.30;99.90
12460;DHT22;6295;49.452;8.466;2024-02-15T15:38:43;14.30;99.90
12460;DHT22;6295;49.452;8.466;2024-02-15T15:42:46;14.20;99.90
12460;DHT22;6295;49.452;8.466;2024-02-15T15:46:54;14.20;99.90
12460;DHT22;6295;49.452;8.466;2024-02-15T15:50:59;14.20;99.90
12460;DHT22;6295;49.452;8.466;2024-02-15T15:55:07;14.20;99.90
